createdAt,value
2019-03-31T00:01:39.764Z,52.74
2019-03-31T00:04:07.469Z,53.36
2019-03-31T00:06:34.269Z,53.39
2019-03-31T00:09:05.070Z,53.44
2019-03-31T00:11:32.177Z,53.48
2019-03-31T00:13:59.002Z,53.28
2019-03-31T00:16:26.576Z,53.06
2019-03-31T00:18:54.159Z,53.75
2019-03-31T00:21:21.036Z,53.93
2019-03-31T00:23:48.616Z,53.89
2019-03-31T00:26:15.670Z,53.61
2019-03-31T00:28:42.547Z,54.29
2019-03-31T00:31:21.560Z,54.48
2019-03-31T00:33:42.185Z,53.71
2019-03-31T00:36:09.978Z,54.04
2019-03-31T00:38:37.121Z,54.10
2019-03-31T00:41:05.546Z,54.39
2019-03-31T00:43:33.164Z,54.48
2019-03-31T00:46:00.127Z,54.93
2019-03-31T00:48:29.181Z,54.77
2019-03-31T00:50:56.319Z,54.42
2019-03-31T00:53:23.597Z,54.76
2019-03-31T00:55:50.439Z,55.31
2019-03-31T00:58:17.326Z,55.23
2019-03-31T01:00:45.052Z,54.93
2019-03-31T01:03:12.450Z,55.47
2019-03-31T01:05:41.416Z,55.05
2019-03-31T01:08:08.961Z,54.84
2019-03-31T01:10:36.464Z,55.00
2019-03-31T01:13:05.333Z,55.53
2019-03-31T01:15:32.799Z,55.60
2019-03-31T01:18:00.566Z,55.40
2019-03-31T01:20:28.228Z,55.50
2019-03-31T01:22:55.609Z,55.69
2019-03-31T01:25:23.096Z,55.61
2019-03-31T01:27:50.248Z,55.89
2019-03-31T01:30:19.620Z,56.34
2019-03-31T01:32:47.199Z,56.49
2019-03-31T01:35:15.775Z,56.23
2019-03-31T01:37:42.951Z,56.10
2019-03-31T01:40:10.204Z,56.26
2019-03-31T01:42:37.537Z,56.19
2019-03-31T01:45:06.559Z,56.02
2019-03-31T01:47:33.865Z,55.92
2019-03-31T01:50:01.724Z,55.73
2019-03-31T01:52:29.312Z,56.23
2019-03-31T01:54:56.186Z,57.11
2019-03-31T01:57:23.136Z,57.22
2019-03-31T01:59:50.275Z,56.65
2019-03-31T02:02:25.421Z,56.24
2019-03-31T02:04:52.588Z,56.26
2019-03-31T02:07:19.887Z,56.08
2019-03-31T02:09:46.829Z,56.10
2019-03-31T02:12:13.687Z,55.95
2019-03-31T02:14:40.995Z,56.40
2019-03-31T02:17:08.118Z,56.94
2019-03-31T02:19:35.421Z,56.87
2019-03-31T02:22:02.681Z,56.79
2019-03-31T02:24:29.582Z,56.86
2019-03-31T02:26:56.349Z,57.55
2019-03-31T02:29:23.651Z,57.47
2019-03-31T02:31:50.442Z,57.51
2019-03-31T02:34:17.632Z,57.67
2019-03-31T02:36:44.443Z,58.50
2019-03-31T02:39:11.361Z,58.73
2019-03-31T02:41:38.131Z,58.86
2019-03-31T02:44:05.157Z,59.36
2019-03-31T02:46:32.031Z,59.72
2019-03-31T02:48:58.914Z,59.41
2019-03-31T02:51:25.966Z,58.66
2019-03-31T02:53:53.498Z,58.54
2019-03-31T02:56:24.337Z,59.10
2019-03-31T02:58:54.245Z,58.82
2019-03-31T03:01:23.253Z,58.39
2019-03-31T03:03:50.567Z,57.99
2019-03-31T03:06:19.701Z,58.31
2019-03-31T03:08:48.716Z,58.73
2019-03-31T03:11:16.356Z,58.21
2019-03-31T03:13:47.859Z,58.31
2019-03-31T03:16:17.333Z,58.53
2019-03-31T03:18:44.904Z,58.98
2019-03-31T03:21:12.630Z,58.93
2019-03-31T03:23:39.906Z,59.39
2019-03-31T03:26:06.781Z,59.13
2019-03-31T03:28:34.166Z,59.04
2019-03-31T03:31:04.387Z,59.06
2019-03-31T03:33:32.165Z,58.57
2019-03-31T03:35:59.714Z,58.87
2019-03-31T03:38:26.465Z,58.93
2019-03-31T03:40:53.251Z,58.73
2019-03-31T03:43:20.220Z,58.55
2019-03-31T03:45:47.083Z,58.60
2019-03-31T03:48:13.863Z,59.25
2019-03-31T03:50:40.823Z,59.10
2019-03-31T03:53:08.143Z,59.26
2019-03-31T03:55:35.002Z,59.45
2019-03-31T03:58:01.883Z,59.68
2019-03-31T04:00:29.124Z,59.74
2019-03-31T04:02:56.128Z,59.26
2019-03-31T04:05:23.287Z,59.41
2019-03-31T04:07:50.199Z,59.17
2019-03-31T04:10:43.605Z,59.37
2019-03-31T04:13:10.707Z,59.54
2019-03-31T04:15:37.725Z,59.64
2019-03-31T04:18:04.509Z,60.01
2019-03-31T04:20:31.279Z,60.10
2019-03-31T04:22:58.198Z,60.28
2019-03-31T04:25:25.547Z,60.08
2019-03-31T04:27:52.866Z,59.90
2019-03-31T04:30:20.423Z,59.76
2019-03-31T04:32:47.475Z,60.03
2019-03-31T04:35:14.468Z,60.63
2019-03-31T04:37:41.357Z,61.24
2019-03-31T04:40:08.442Z,60.74
2019-03-31T04:42:35.422Z,60.32
2019-03-31T04:45:04.770Z,59.87
2019-03-31T04:47:31.827Z,59.53
2019-03-31T04:50:01.754Z,59.42
2019-03-31T04:52:28.689Z,59.61
2019-03-31T04:54:55.521Z,60.28
2019-03-31T04:57:22.391Z,60.56
2019-03-31T04:59:49.324Z,61.21
2019-03-31T05:02:16.492Z,62.60
2019-03-31T05:04:43.385Z,62.00
2019-03-31T05:07:10.983Z,61.99
2019-03-31T05:09:38.248Z,62.11
2019-03-31T05:12:05.136Z,62.70
2019-03-31T05:14:31.990Z,62.36
2019-03-31T05:16:58.921Z,62.31
2019-03-31T05:19:25.692Z,62.09
2019-03-31T05:21:52.975Z,62.06
2019-03-31T05:24:19.874Z,62.27
2019-03-31T05:26:47.083Z,61.92
2019-03-31T05:29:13.842Z,61.22
2019-03-31T05:31:40.952Z,61.01
2019-03-31T05:34:18.856Z,61.70
2019-03-31T05:36:36.675Z,62.30
2019-03-31T05:39:05.710Z,62.44
2019-03-31T05:41:32.489Z,62.37
2019-03-31T05:44:05.662Z,62.57
2019-03-31T05:46:28.547Z,62.23
2019-03-31T05:48:55.859Z,61.82
2019-03-31T05:51:22.856Z,61.92
2019-03-31T05:53:49.788Z,61.89
2019-03-31T05:56:16.753Z,61.64
2019-03-31T05:58:43.554Z,61.02
2019-03-31T06:01:11.041Z,61.11
2019-03-31T06:03:37.842Z,61.48
2019-03-31T06:06:04.947Z,61.44
2019-03-31T06:08:32.083Z,61.58
2019-03-31T06:10:59.250Z,61.53
2019-03-31T06:13:26.049Z,61.84
2019-03-31T06:15:53.345Z,61.83
2019-03-31T06:18:23.299Z,61.81
2019-03-31T06:20:50.295Z,61.53
2019-03-31T06:23:17.090Z,61.44
2019-03-31T06:25:44.202Z,61.43
2019-03-31T06:28:11.465Z,61.54
2019-03-31T06:30:38.391Z,61.02
2019-03-31T06:33:05.818Z,60.32
2019-03-31T06:35:32.963Z,60.20
2019-03-31T06:38:00.004Z,59.91
2019-03-31T06:40:27.152Z,60.20
2019-03-31T06:42:53.936Z,60.18
2019-03-31T06:45:20.853Z,59.81
2019-03-31T06:47:48.114Z,59.42
2019-03-31T06:50:15.563Z,59.74
2019-03-31T06:52:42.788Z,59.62
2019-03-31T06:55:10.053Z,59.47
2019-03-31T06:57:37.278Z,59.48
2019-03-31T07:00:06.306Z,59.26
2019-03-31T07:02:33.538Z,58.42
2019-03-31T07:05:01.788Z,58.13
2019-03-31T07:07:29.011Z,57.58
2019-03-31T07:09:56.745Z,57.73
2019-03-31T07:12:25.810Z,57.54
2019-03-31T07:14:52.921Z,57.24
2019-03-31T07:17:20.069Z,57.03
2019-03-31T07:19:47.061Z,56.97
2019-03-31T07:22:14.327Z,56.82
2019-03-31T07:24:41.565Z,56.64
2019-03-31T07:27:08.363Z,56.51
2019-03-31T07:29:35.452Z,56.19
2019-03-31T07:32:02.192Z,56.22
2019-03-31T07:34:29.234Z,55.94
2019-03-31T07:36:56.013Z,55.39
2019-03-31T07:39:23.057Z,55.36
2019-03-31T07:41:52.483Z,55.17
2019-03-31T07:44:21.226Z,55.14
2019-03-31T07:46:48.482Z,54.90
2019-03-31T07:49:15.832Z,54.57
2019-03-31T07:51:43.050Z,54.08
2019-03-31T07:54:10.121Z,53.70
2019-03-31T07:56:38.018Z,53.43
2019-03-31T07:59:05.157Z,53.13
2019-03-31T08:01:32.416Z,52.94
2019-03-31T08:04:00.863Z,52.51
2019-03-31T08:06:29.304Z,52.01
2019-03-31T08:08:56.212Z,51.57
2019-03-31T08:11:25.755Z,51.04
2019-03-31T08:13:55.237Z,50.48
2019-03-31T08:16:22.077Z,49.94
2019-03-31T08:18:49.376Z,49.50
2019-03-31T08:21:16.609Z,49.02
2019-03-31T08:23:47.012Z,48.58
2019-03-31T08:26:14.173Z,48.04
2019-03-31T08:28:41.523Z,47.60
2019-03-31T08:31:08.513Z,47.05
2019-03-31T08:33:35.663Z,46.44
2019-03-31T08:36:02.728Z,45.91
2019-03-31T08:38:29.981Z,45.44
2019-03-31T08:40:57.139Z,44.82
2019-03-31T08:43:24.479Z,44.19
2019-03-31T08:45:51.386Z,43.77
2019-03-31T08:48:18.398Z,43.31
2019-03-31T08:50:45.455Z,42.98
2019-03-31T08:53:12.264Z,42.67
2019-03-31T08:55:39.035Z,42.52
2019-03-31T08:58:06.027Z,42.19
2019-03-31T09:00:43.806Z,41.63
2019-03-31T09:03:11.314Z,41.23
2019-03-31T09:05:38.369Z,40.86
2019-03-31T09:08:05.230Z,40.30
2019-03-31T09:10:32.348Z,39.90
2019-03-31T09:13:00.150Z,39.65
2019-03-31T09:15:27.371Z,39.25
2019-03-31T09:17:54.616Z,39.09
2019-03-31T09:20:23.008Z,38.91
2019-03-31T09:22:50.656Z,38.60
2019-03-31T09:25:17.813Z,38.27
2019-03-31T09:27:44.901Z,37.88
2019-03-31T09:30:13.177Z,37.67
2019-03-31T09:32:40.133Z,37.37
2019-03-31T09:35:08.466Z,37.23
2019-03-31T09:37:35.908Z,37.02
2019-03-31T09:40:08.639Z,36.78
2019-03-31T09:42:39.326Z,36.51
2019-03-31T09:45:12.481Z,36.00
2019-03-31T09:47:41.149Z,35.44
2019-03-31T09:50:17.304Z,34.88
2019-03-31T09:52:46.431Z,34.20
2019-03-31T09:55:14.093Z,33.55
2019-03-31T09:57:41.674Z,32.92
2019-03-31T10:00:14.137Z,32.29
2019-03-31T10:02:41.711Z,32.02
2019-03-31T10:05:10.126Z,32.33
2019-03-31T10:07:39.296Z,32.83
2019-03-31T10:10:29.838Z,33.17
2019-03-31T10:12:58.040Z,33.24
2019-03-31T10:15:25.529Z,32.54
2019-03-31T10:17:55.273Z,31.79
2019-03-31T10:20:22.946Z,31.35
2019-03-31T10:22:50.099Z,30.66
2019-03-31T10:25:17.114Z,29.96
2019-03-31T10:27:44.259Z,29.36
2019-03-31T10:30:20.951Z,28.69
2019-03-31T10:32:47.757Z,28.18
2019-03-31T10:35:15.039Z,27.87
2019-03-31T10:37:42.188Z,27.31
2019-03-31T10:40:11.313Z,27.14
2019-03-31T10:42:38.197Z,26.99
2019-03-31T10:45:07.114Z,26.66
2019-03-31T10:47:34.286Z,26.24
2019-03-31T10:50:01.939Z,25.92
2019-03-31T10:52:29.844Z,25.70
2019-03-31T10:54:57.369Z,25.32
2019-03-31T10:57:25.647Z,24.90
2019-03-31T10:59:52.515Z,24.56
2019-03-31T11:02:19.397Z,24.49
2019-03-31T11:04:46.908Z,24.30
2019-03-31T11:07:15.156Z,24.17
2019-03-31T11:09:42.110Z,23.84
2019-03-31T11:12:08.872Z,23.60
2019-03-31T11:14:35.875Z,23.37
2019-03-31T11:17:03.013Z,23.16
2019-03-31T11:19:30.292Z,23.27
2019-03-31T11:22:04.702Z,22.84
2019-03-31T11:24:31.488Z,22.65
2019-03-31T11:26:58.358Z,22.77
2019-03-31T11:29:25.265Z,22.76
2019-03-31T11:31:52.126Z,22.20
2019-03-31T11:34:19.795Z,21.44
2019-03-31T11:36:47.398Z,20.80
2019-03-31T11:39:16.426Z,20.50
2019-03-31T11:41:43.460Z,20.04
2019-03-31T11:44:10.684Z,20.01
2019-03-31T11:46:37.930Z,20.47
2019-03-31T11:49:06.847Z,20.01
2019-03-31T11:51:33.573Z,19.79
2019-03-31T11:54:00.504Z,19.24
2019-03-31T11:56:27.421Z,18.87
2019-03-31T11:58:54.303Z,18.43
2019-03-31T12:01:21.166Z,18.57
2019-03-31T12:03:47.928Z,19.03
2019-03-31T12:06:14.833Z,19.73
2019-03-31T12:08:41.590Z,21.45
2019-03-31T12:11:08.814Z,22.43
2019-03-31T12:13:35.898Z,22.01
2019-03-31T12:16:03.318Z,20.47
2019-03-31T12:18:30.408Z,19.07
2019-03-31T12:20:59.217Z,18.81
2019-03-31T12:23:26.063Z,17.98
2019-03-31T12:25:53.020Z,17.68
2019-03-31T12:28:19.780Z,17.98
2019-03-31T12:30:46.831Z,18.01
2019-03-31T12:33:13.576Z,17.42
2019-03-31T12:35:40.568Z,18.09
2019-03-31T12:38:07.997Z,18.88
2019-03-31T12:40:35.874Z,19.11
2019-03-31T12:43:03.546Z,18.60
2019-03-31T12:45:30.467Z,17.62
2019-03-31T12:48:01.279Z,17.17
2019-03-31T12:50:27.470Z,16.71
2019-03-31T12:52:55.870Z,16.70
2019-03-31T12:55:23.093Z,16.80
2019-03-31T12:57:51.766Z,16.86
2019-03-31T13:00:19.593Z,16.50
2019-03-31T13:02:46.555Z,16.56
2019-03-31T13:05:13.302Z,17.40
2019-03-31T13:07:40.634Z,17.24
2019-03-31T13:10:09.791Z,17.56
2019-03-31T13:12:36.545Z,18.14
2019-03-31T13:15:05.459Z,18.42
2019-03-31T13:17:32.382Z,17.47
2019-03-31T13:20:01.050Z,17.66
2019-03-31T13:22:28.089Z,18.37
2019-03-31T13:24:54.865Z,18.74
2019-03-31T13:27:21.641Z,18.54
2019-03-31T13:29:49.557Z,18.22
2019-03-31T13:32:16.413Z,17.27
2019-03-31T13:34:43.304Z,16.64
2019-03-31T13:37:10.461Z,16.74
2019-03-31T13:39:37.273Z,16.01
2019-03-31T13:42:06.984Z,15.48
2019-03-31T13:44:33.775Z,15.29
2019-03-31T13:47:00.550Z,15.32
2019-03-31T13:49:27.707Z,15.13
2019-03-31T13:51:54.832Z,14.90
2019-03-31T13:54:22.136Z,14.75
2019-03-31T13:56:50.267Z,15.53
2019-03-31T13:59:17.745Z,15.99
2019-03-31T14:02:08.801Z,15.52
2019-03-31T14:04:36.983Z,15.21
2019-03-31T14:07:04.450Z,14.86
2019-03-31T14:09:31.452Z,14.94
2019-03-31T14:11:59.287Z,15.86
2019-03-31T14:14:26.270Z,17.17
2019-03-31T14:16:53.450Z,17.58
2019-03-31T14:19:20.559Z,16.71
2019-03-31T14:21:47.856Z,15.95
2019-03-31T14:24:14.989Z,15.63
2019-03-31T14:26:43.754Z,15.64
2019-03-31T14:29:10.566Z,15.78
2019-03-31T14:31:37.970Z,15.86
2019-03-31T14:34:04.968Z,15.83
2019-03-31T14:36:31.973Z,15.71
2019-03-31T14:38:59.736Z,15.70
2019-03-31T14:41:27.544Z,15.72
2019-03-31T14:43:55.189Z,15.89
2019-03-31T14:46:23.303Z,16.05
2019-03-31T14:48:50.328Z,16.07
2019-03-31T14:51:17.624Z,16.12
2019-03-31T14:53:44.625Z,16.06
2019-03-31T14:56:11.906Z,16.10
2019-03-31T14:58:39.014Z,16.29
2019-03-31T15:01:05.991Z,16.49
2019-03-31T15:03:32.746Z,17.21
2019-03-31T15:05:59.887Z,17.79
2019-03-31T15:08:27.049Z,18.12
2019-03-31T15:10:55.341Z,18.30
2019-03-31T15:13:23.581Z,18.34
2019-03-31T15:15:52.592Z,18.21
2019-03-31T15:18:20.024Z,18.18
2019-03-31T15:20:47.426Z,18.44
2019-03-31T15:23:14.223Z,18.72
2019-03-31T15:25:43.582Z,18.91
2019-03-31T15:28:10.767Z,19.21
2019-03-31T15:30:37.947Z,19.43
2019-03-31T15:33:04.936Z,19.80
2019-03-31T15:35:32.503Z,20.00
2019-03-31T15:38:00.199Z,20.16
2019-03-31T15:40:27.199Z,20.24
2019-03-31T15:42:54.149Z,20.46
2019-03-31T15:45:21.190Z,20.73
2019-03-31T15:47:47.988Z,20.91
2019-03-31T15:50:15.569Z,21.11
2019-03-31T15:55:35.757Z,21.20
2019-03-31T15:58:16.524Z,21.29
2019-03-31T16:00:44.395Z,21.27
2019-03-31T16:03:11.536Z,21.17
2019-03-31T16:05:41.102Z,21.20
2019-03-31T16:08:07.892Z,21.20
2019-03-31T16:10:34.881Z,21.24
2019-03-31T16:13:02.558Z,21.28
2019-03-31T16:15:29.967Z,21.37
2019-03-31T16:17:56.872Z,21.27
2019-03-31T16:20:23.902Z,21.24
2019-03-31T16:22:50.775Z,21.37
2019-03-31T16:25:32.415Z,21.34
2019-03-31T16:28:01.663Z,21.27
2019-03-31T16:30:30.172Z,21.32
2019-03-31T16:32:57.054Z,21.43
2019-03-31T16:35:24.225Z,21.50
2019-03-31T16:37:51.444Z,21.60
2019-03-31T16:40:18.242Z,21.72
2019-03-31T16:42:46.316Z,21.84
2019-03-31T16:45:13.549Z,21.91
2019-03-31T16:47:40.924Z,22.03
2019-03-31T16:50:08.258Z,22.24
2019-03-31T16:52:35.645Z,22.43
2019-03-31T16:55:03.828Z,22.40
2019-03-31T16:57:31.164Z,22.47
2019-03-31T16:59:58.445Z,22.65
2019-03-31T17:02:26.155Z,22.79
2019-03-31T17:04:53.305Z,22.94
2019-03-31T17:07:20.510Z,23.04
2019-03-31T17:09:51.557Z,23.29
2019-03-31T17:12:16.438Z,23.40
2019-03-31T17:14:43.349Z,23.50
2019-03-31T17:17:10.378Z,23.64
2019-03-31T17:19:37.585Z,23.76
2019-03-31T17:22:10.925Z,23.88
2019-03-31T17:24:38.234Z,24.00
2019-03-31T17:27:06.211Z,24.10
2019-03-31T17:29:33.032Z,24.23
2019-03-31T17:32:00.305Z,24.29
2019-03-31T17:34:27.221Z,24.27
2019-03-31T17:36:54.908Z,24.33
2019-03-31T17:39:24.636Z,24.45
2019-03-31T17:41:51.463Z,24.57
2019-03-31T17:44:18.713Z,24.70
2019-03-31T17:46:46.431Z,24.89
2019-03-31T17:49:13.944Z,25.11
2019-03-31T17:51:41.417Z,25.25
2019-03-31T17:54:08.973Z,25.46
2019-03-31T17:56:36.259Z,25.63
2019-03-31T17:59:03.430Z,25.73
2019-03-31T18:01:30.741Z,25.98
2019-03-31T18:03:57.654Z,26.33
2019-03-31T18:06:24.555Z,26.53
2019-03-31T18:08:51.959Z,26.94
2019-03-31T18:11:21.146Z,27.74
2019-03-31T18:13:48.626Z,28.20
2019-03-31T18:16:15.727Z,28.36
2019-03-31T18:18:43.021Z,28.68
2019-03-31T18:21:10.451Z,28.95
2019-03-31T18:23:37.575Z,29.44
2019-03-31T18:26:04.884Z,30.09
2019-03-31T18:28:31.671Z,30.48
2019-03-31T18:30:58.853Z,30.80
2019-03-31T18:33:26.421Z,30.95
2019-03-31T18:35:53.950Z,31.13
2019-03-31T18:38:21.233Z,31.49
2019-03-31T18:40:48.410Z,31.32
2019-03-31T18:43:16.819Z,31.17
2019-03-31T18:45:43.911Z,31.23
2019-03-31T18:48:11.137Z,31.34
2019-03-31T18:50:38.016Z,31.52
2019-03-31T18:53:06.351Z,31.75
2019-03-31T18:55:54.111Z,31.89
2019-03-31T18:58:35.139Z,32.38
2019-03-31T19:01:10.479Z,32.53
2019-03-31T19:03:55.412Z,32.64
2019-03-31T19:06:24.549Z,32.74
2019-03-31T19:08:51.358Z,33.00
2019-03-31T19:11:30.589Z,33.19
2019-03-31T19:14:05.382Z,33.32
2019-03-31T19:16:47.177Z,33.54
2019-03-31T19:19:31.569Z,34.13
2019-03-31T19:22:08.056Z,34.02
2019-03-31T19:24:51.974Z,34.31
2019-03-31T19:27:35.732Z,34.61
2019-03-31T19:30:15.688Z,34.94
2019-03-31T19:32:46.719Z,35.65
2019-03-31T19:35:21.290Z,35.94
2019-03-31T19:37:53.411Z,37.14
2019-03-31T19:40:26.812Z,36.85
2019-03-31T19:43:01.401Z,37.00
2019-03-31T19:45:33.361Z,36.81
2019-03-31T19:48:03.972Z,37.24
2019-03-31T19:50:31.007Z,37.83
2019-03-31T19:53:00.049Z,38.08
2019-03-31T19:55:48.752Z,38.14
2019-03-31T19:58:36.345Z,38.24
2019-03-31T20:01:16.387Z,38.32
2019-03-31T20:03:49.521Z,39.22
2019-03-31T20:06:31.162Z,39.19
2019-03-31T20:09:00.266Z,39.53
2019-03-31T20:11:36.175Z,39.50
2019-03-31T20:14:09.634Z,39.11
2019-03-31T20:16:45.208Z,39.20
2019-03-31T20:19:12.311Z,39.53
2019-03-31T20:21:50.203Z,39.82
2019-03-31T20:24:17.418Z,40.38
2019-03-31T20:26:46.809Z,41.17
2019-03-31T20:29:16.860Z,41.43
2019-03-31T20:31:53.179Z,41.63
2019-03-31T20:34:25.758Z,41.68
2019-03-31T20:37:11.611Z,41.56
2019-03-31T20:39:57.117Z,41.32
2019-03-31T20:42:44.525Z,41.54
2019-03-31T20:45:23.366Z,41.17
2019-03-31T20:47:50.368Z,41.50
2019-03-31T20:50:17.464Z,41.48
2019-03-31T20:52:45.163Z,41.50
2019-03-31T20:55:16.436Z,42.25
2019-03-31T20:57:41.595Z,42.61
2019-03-31T21:00:10.196Z,42.75
2019-03-31T21:02:36.961Z,43.66
2019-03-31T21:05:05.229Z,44.24
2019-03-31T21:07:32.747Z,44.35
2019-03-31T21:10:00.348Z,43.90
2019-03-31T21:12:27.339Z,43.63
2019-03-31T21:14:54.575Z,43.99
2019-03-31T21:17:22.820Z,44.04
2019-03-31T21:19:50.171Z,44.00
2019-03-31T21:22:17.498Z,44.02
2019-03-31T21:24:44.520Z,44.07
2019-03-31T21:27:11.794Z,44.22
2019-03-31T21:29:40.715Z,44.07
2019-03-31T21:32:07.575Z,44.20
2019-03-31T21:34:35.051Z,44.54
2019-03-31T21:37:02.106Z,45.04
2019-03-31T21:39:29.120Z,45.27
2019-03-31T21:41:56.163Z,45.33
2019-03-31T21:44:25.066Z,45.57
2019-03-31T21:46:51.949Z,46.04
2019-03-31T21:49:19.352Z,46.04
2019-03-31T21:51:57.241Z,46.80
2019-03-31T21:54:28.893Z,47.33
2019-03-31T21:57:07.383Z,48.06
2019-03-31T21:59:43.387Z,48.21
2019-03-31T22:02:13.064Z,47.83
2019-03-31T22:04:39.976Z,47.86
2019-03-31T22:07:07.237Z,47.82
2019-03-31T22:09:34.423Z,48.47
2019-03-31T22:12:01.504Z,48.39
2019-03-31T22:14:28.325Z,48.49
2019-03-31T22:16:55.173Z,48.38
2019-03-31T22:19:22.056Z,48.46
2019-03-31T22:21:48.961Z,48.64
2019-03-31T22:24:16.312Z,49.54
2019-03-31T22:26:43.362Z,50.03
2019-03-31T22:29:10.587Z,49.79
2019-03-31T22:31:40.060Z,50.75
2019-03-31T22:34:09.012Z,50.61
2019-03-31T22:36:37.603Z,49.79
2019-03-31T22:39:06.129Z,49.06
2019-03-31T22:41:33.692Z,48.83
2019-03-31T22:44:00.503Z,49.06
2019-03-31T22:46:27.377Z,49.02
2019-03-31T22:48:54.149Z,48.96
2019-03-31T22:51:20.921Z,48.80
2019-03-31T22:53:47.733Z,49.05
2019-03-31T22:56:14.720Z,49.55
2019-03-31T22:58:41.899Z,50.33
2019-03-31T23:01:08.897Z,50.64
2019-03-31T23:03:36.745Z,50.44
2019-03-31T23:06:03.819Z,49.84
2019-03-31T23:08:30.907Z,50.08
2019-03-31T23:10:58.668Z,50.82
2019-03-31T23:13:25.552Z,50.80
2019-03-31T23:15:52.714Z,51.62
2019-03-31T23:18:19.612Z,51.94
2019-03-31T23:20:46.957Z,52.27
2019-03-31T23:23:14.324Z,52.75
2019-03-31T23:25:41.202Z,53.10
2019-03-31T23:28:08.160Z,52.67
2019-03-31T23:30:35.355Z,52.86
2019-03-31T23:33:02.113Z,52.75
2019-03-31T23:35:29.162Z,52.75
2019-03-31T23:37:56.200Z,53.11
2019-03-31T23:40:23.474Z,52.89
2019-03-31T23:42:50.371Z,52.67
2019-03-31T23:45:17.391Z,53.27
2019-03-31T23:47:45.184Z,54.11
2019-03-31T23:50:12.579Z,53.59
2019-03-31T23:52:39.825Z,53.45
2019-03-31T23:55:06.930Z,53.52
2019-03-31T23:57:42.951Z,54.09
